sensor_id;sensor_type;location;lat;lon;timestamp;P1;durP1;ratioP1;P2;durP2;ratioP2
79076;SDS011;68477;42.698;23.342;2023-03-13T00:00:56;7.63;;;5.15;;
79076;SDS011;68477;42.698;23.342;2023-03-13T00:03:23;7.75;;;5.22;;
79076;SDS011;68477;42.698;23.342;2023-03-13T00:05:49;8.27;;;4.45;;
79076;SDS011;68477;42.698;23.342;2023-03-13T00:08:14;8.55;;;5.35;;
79076;SDS011;68477;42.698;23.342;2023-03-13T00:10:40;6.40;;;4.68;;
79076;SDS011;68477;42.698;23.342;2023-03-13T00:13:08;8.32;;;5.00;;
79076;SDS011;68477;42.698;23.342;2023-03-13T00:15:33;9.15;;;4.38;;
79076;SDS011;68477;42.698;23.342;2023-03-13T00:18:00;7.22;;;4.68;;
79076;SDS011;68477;42.698;23.342;2023-03-13T00:20:25;7.40;;;4.80;;
79076;SDS011;68477;42.698;23.342;2023-03-13T00:22:51;9.13;;;4.85;;
79076;SDS011;68477;42.698;23.342;2023-03-13T00:25:17;9.15;;;5.10;;
79076;SDS011;68477;42.698;23.342;2023-03-13T00:27:42;7.70;;;4.75;;
79076;SDS011;68477;42.698;23.342;2023-03-13T00:30:08;7.47;;;4.70;;
79076;SDS011;68477;42.698;23.342;2023-03-13T00:32:39;6.32;;;4.72;;
79076;SDS011;68477;42.698;23.342;2023-03-13T00:35:06;8.43;;;4.57;;
79076;SDS011;68477;42.698;23.342;2023-03-13T00:37:32;8.70;;;5.47;;
79076;SDS011;68477;42.698;23.342;2023-03-13T00:39:57;7.88;;;4.75;;
79076;SDS011;68477;42.698;23.342;2023-03-13T00:42:22;9.00;;;5.28;;
79076;SDS011;68477;42.698;23.342;2023-03-13T00:44:48;8.57;;;5.35;;
79076;SDS011;68477;42.698;23.342;2023-03-13T00:47:13;8.15;;;5.13;;
79076;SDS011;68477;42.698;23.342;2023-03-13T00:49:39;8.55;;;4.70;;
79076;SDS011;68477;42.698;23.342;2023-03-13T00:52:05;7.53;;;4.45;;
79076;SDS011;68477;42.698;23.342;2023-03-13T00:54:31;9.15;;;5.30;;
79076;SDS011;68477;42.698;23.342;2023-03-13T00:56:56;8.25;;;4.88;;
79076;SDS011;68477;42.698;23.342;2023-03-13T00:59:22;7.97;;;4.93;;
79076;SDS011;68477;42.698;23.342;2023-03-13T01:01:48;8.35;;;4.95;;
79076;SDS011;68477;42.698;23.342;2023-03-13T01:04:14;7.82;;;4.97;;
79076;SDS011;68477;42.698;23.342;2023-03-13T01:06:40;5.78;;;4.10;;
79076;SDS011;68477;42.698;23.342;2023-03-13T01:09:13;8.05;;;4.93;;
79076;SDS011;68477;42.698;23.342;2023-03-13T01:11:40;8.00;;;4.45;;
79076;SDS011;68477;42.698;23.342;2023-03-13T01:14:16;7.82;;;5.30;;
79076;SDS011;68477;42.698;23.342;2023-03-13T01:16:43;6.68;;;4.38;;
79076;SDS011;68477;42.698;23.342;2023-03-13T01:19:10;7.45;;;4.63;;
79076;SDS011;68477;42.698;23.342;2023-03-13T01:21:40;10.15;;;5.05;;
79076;SDS011;68477;42.698;23.342;2023-03-13T01:24:06;8.77;;;4.63;;
79076;SDS011;68477;42.698;23.342;2023-03-13T01:26:32;7.75;;;5.18;;
79076;SDS011;68477;42.698;23.342;2023-03-13T01:28:57;8.05;;;4.72;;
79076;SDS011;68477;42.698;23.342;2023-03-13T01:31:30;8.15;;;4.85;;
79076;SDS011;68477;42.698;23.342;2023-03-13T01:33:58;8.40;;;4.97;;
79076;SDS011;68477;42.698;23.342;2023-03-13T01:36:25;7.68;;;4.95;;
79076;SDS011;68477;42.698;23.342;2023-03-13T01:38:51;8.07;;;4.85;;
79076;SDS011;68477;42.698;23.342;2023-03-13T01:41:19;6.80;;;5.07;;
79076;SDS011;68477;42.698;23.342;2023-03-13T01:43:46;6.68;;;4.80;;
79076;SDS011;68477;42.698;23.342;2023-03-13T01:48:41;7.93;;;4.70;;
79076;SDS011;68477;42.698;23.342;2023-03-13T01:53:49;8.27;;;5.15;;
79076;SDS011;68477;42.698;23.342;2023-03-13T01:56:19;9.32;;;4.57;;
79076;SDS011;68477;42.698;23.342;2023-03-13T01:58:49;7.97;;;4.53;;
79076;SDS011;68477;42.698;23.342;2023-03-13T02:01:17;9.05;;;4.82;;
79076;SDS011;68477;42.698;23.342;2023-03-13T02:03:44;10.70;;;5.65;;
79076;SDS011;68477;42.698;23.342;2023-03-13T02:06:11;14.00;;;6.20;;
79076;SDS011;68477;42.698;23.342;2023-03-13T02:08:38;12.05;;;7.18;;
79076;SDS011;68477;42.698;23.342;2023-03-13T02:11:28;11.23;;;6.20;;
79076;SDS011;68477;42.698;23.342;2023-03-13T02:14:19;9.77;;;5.68;;
79076;SDS011;68477;42.698;23.342;2023-03-13T02:16:47;12.35;;;6.53;;
79076;SDS011;68477;42.698;23.342;2023-03-13T02:19:18;10.60;;;5.63;;
79076;SDS011;68477;42.698;23.342;2023-03-13T02:21:55;9.30;;;5.78;;
79076;SDS011;68477;42.698;23.342;2023-03-13T02:27:28;14.75;;;7.13;;
79076;SDS011;68477;42.698;23.342;2023-03-13T02:29:53;9.98;;;6.25;;
79076;SDS011;68477;42.698;23.342;2023-03-13T02:32:19;11.13;;;6.90;;
79076;SDS011;68477;42.698;23.342;2023-03-13T02:34:46;10.80;;;6.45;;
79076;SDS011;68477;42.698;23.342;2023-03-13T02:37:16;11.50;;;5.75;;
79076;SDS011;68477;42.698;23.342;2023-03-13T02:39:44;13.15;;;7.15;;
79076;SDS011;68477;42.698;23.342;2023-03-13T02:42:16;11.45;;;6.90;;
79076;SDS011;68477;42.698;23.342;2023-03-13T02:44:45;11.52;;;6.72;;
79076;SDS011;68477;42.698;23.342;2023-03-13T02:47:12;12.00;;;7.47;;
79076;SDS011;68477;42.698;23.342;2023-03-13T02:49:42;10.07;;;5.57;;
79076;SDS011;68477;42.698;23.342;2023-03-13T02:52:18;9.05;;;6.25;;
79076;SDS011;68477;42.698;23.342;2023-03-13T02:54:49;11.23;;;6.10;;
79076;SDS011;68477;42.698;23.342;2023-03-13T02:57:16;10.65;;;6.65;;
79076;SDS011;68477;42.698;23.342;2023-03-13T02:59:42;9.52;;;6.30;;
79076;SDS011;68477;42.698;23.342;2023-03-13T03:02:08;11.13;;;6.15;;
79076;SDS011;68477;42.698;23.342;2023-03-13T03:04:33;12.75;;;6.45;;
79076;SDS011;68477;42.698;23.342;2023-03-13T03:06:58;10.93;;;6.15;;
79076;SDS011;68477;42.698;23.342;2023-03-13T03:09:24;10.18;;;6.70;;
79076;SDS011;68477;42.698;23.342;2023-03-13T03:11:50;12.27;;;6.25;;
79076;SDS011;68477;42.698;23.342;2023-03-13T03:14:15;13.23;;;6.75;;
79076;SDS011;68477;42.698;23.342;2023-03-13T03:16:41;9.90;;;6.30;;
79076;SDS011;68477;42.698;23.342;2023-03-13T03:19:06;14.77;;;6.45;;
79076;SDS011;68477;42.698;23.342;2023-03-13T03:21:33;11.75;;;5.53;;
79076;SDS011;68477;42.698;23.342;2023-03-13T03:24:00;11.27;;;5.88;;
79076;SDS011;68477;42.698;23.342;2023-03-13T03:26:26;8.88;;;6.07;;
79076;SDS011;68477;42.698;23.342;2023-03-13T03:28:51;10.35;;;6.28;;
79076;SDS011;68477;42.698;23.342;2023-03-13T03:31:17;9.82;;;5.93;;
79076;SDS011;68477;42.698;23.342;2023-03-13T03:33:43;11.32;;;6.03;;
79076;SDS011;68477;42.698;23.342;2023-03-13T03:36:11;11.25;;;6.80;;
79076;SDS011;68477;42.698;23.342;2023-03-13T03:38:42;7.90;;;5.10;;
79076;SDS011;68477;42.698;23.342;2023-03-13T03:41:09;11.32;;;6.30;;
79076;SDS011;68477;42.698;23.342;2023-03-13T03:43:35;14.73;;;6.28;;
79076;SDS011;68477;42.698;23.342;2023-03-13T03:46:01;11.32;;;6.13;;
79076;SDS011;68477;42.698;23.342;2023-03-13T03:48:30;10.45;;;6.10;;
79076;SDS011;68477;42.698;23.342;2023-03-13T03:50:55;9.55;;;5.55;;
79076;SDS011;68477;42.698;23.342;2023-03-13T03:53:21;12.95;;;6.38;;
79076;SDS011;68477;42.698;23.342;2023-03-13T03:55:46;11.77;;;6.40;;
79076;SDS011;68477;42.698;23.342;2023-03-13T03:58:12;10.13;;;7.00;;
79076;SDS011;68477;42.698;23.342;2023-03-13T04:00:37;12.90;;;6.78;;
79076;SDS011;68477;42.698;23.342;2023-03-13T04:03:03;11.77;;;7.05;;
79076;SDS011;68477;42.698;23.342;2023-03-13T04:05:28;13.88;;;6.97;;
79076;SDS011;68477;42.698;23.342;2023-03-13T04:07:54;14.63;;;6.15;;
79076;SDS011;68477;42.698;23.342;2023-03-13T04:10:19;11.32;;;6.55;;
79076;SDS011;68477;42.698;23.342;2023-03-13T04:12:45;10.10;;;6.03;;
79076;SDS011;68477;42.698;23.342;2023-03-13T04:15:11;10.35;;;5.97;;
79076;SDS011;68477;42.698;23.342;2023-03-13T04:17:37;10.48;;;5.50;;
79076;SDS011;68477;42.698;23.342;2023-03-13T04:20:03;11.75;;;6.78;;
79076;SDS011;68477;42.698;23.342;2023-03-13T04:22:29;13.27;;;6.90;;
79076;SDS011;68477;42.698;23.342;2023-03-13T04:24:54;11.15;;;6.72;;
79076;SDS011;68477;42.698;23.342;2023-03-13T04:27:20;11.45;;;6.35;;
79076;SDS011;68477;42.698;23.342;2023-03-13T04:29:45;14.55;;;6.13;;
79076;SDS011;68477;42.698;23.342;2023-03-13T04:32:11;10.45;;;6.45;;
79076;SDS011;68477;42.698;23.342;2023-03-13T04:34:36;11.45;;;6.90;;
79076;SDS011;68477;42.698;23.342;2023-03-13T04:37:02;11.77;;;6.82;;
79076;SDS011;68477;42.698;23.342;2023-03-13T04:39:27;11.50;;;6.32;;
79076;SDS011;68477;42.698;23.342;2023-03-13T04:41:53;10.82;;;6.35;;
79076;SDS011;68477;42.698;23.342;2023-03-13T04:44:20;9.40;;;6.05;;
79076;SDS011;68477;42.698;23.342;2023-03-13T04:46:47;10.93;;;6.85;;
79076;SDS011;68477;42.698;23.342;2023-03-13T04:49:13;12.10;;;7.65;;
79076;SDS011;68477;42.698;23.342;2023-03-13T04:51:43;10.73;;;6.10;;
79076;SDS011;68477;42.698;23.342;2023-03-13T04:54:09;11.48;;;6.07;;
79076;SDS011;68477;42.698;23.342;2023-03-13T04:56:35;9.75;;;6.30;;
79076;SDS011;68477;42.698;23.342;2023-03-13T04:59:00;11.90;;;6.63;;
79076;SDS011;68477;42.698;23.342;2023-03-13T05:01:26;11.48;;;7.25;;
79076;SDS011;68477;42.698;23.342;2023-03-13T05:03:52;11.15;;;7.05;;
79076;SDS011;68477;42.698;23.342;2023-03-13T05:06:17;13.88;;;7.95;;
79076;SDS011;68477;42.698;23.342;2023-03-13T05:08:43;16.52;;;8.65;;
79076;SDS011;68477;42.698;23.342;2023-03-13T05:11:08;16.58;;;7.82;;
79076;SDS011;68477;42.698;23.342;2023-03-13T05:13:34;15.35;;;8.73;;
79076;SDS011;68477;42.698;23.342;2023-03-13T05:16:00;20.85;;;7.82;;
79076;SDS011;68477;42.698;23.342;2023-03-13T05:18:26;15.38;;;7.70;;
79076;SDS011;68477;42.698;23.342;2023-03-13T05:20:52;14.23;;;8.05;;
79076;SDS011;68477;42.698;23.342;2023-03-13T05:23:18;13.57;;;8.52;;
79076;SDS011;68477;42.698;23.342;2023-03-13T05:25:44;18.65;;;9.52;;
79076;SDS011;68477;42.698;23.342;2023-03-13T05:28:09;21.08;;;9.40;;
79076;SDS011;68477;42.698;23.342;2023-03-13T05:30:35;23.17;;;12.27;;
79076;SDS011;68477;42.698;23.342;2023-03-13T05:33:01;15.70;;;10.48;;
79076;SDS011;68477;42.698;23.342;2023-03-13T05:35:26;24.33;;;10.38;;
79076;SDS011;68477;42.698;23.342;2023-03-13T05:37:51;19.30;;;10.63;;
79076;SDS011;68477;42.698;23.342;2023-03-13T05:40:17;19.85;;;11.30;;
79076;SDS011;68477;42.698;23.342;2023-03-13T05:42:44;21.05;;;11.60;;
79076;SDS011;68477;42.698;23.342;2023-03-13T05:45:10;20.60;;;10.48;;
79076;SDS011;68477;42.698;23.342;2023-03-13T05:47:36;19.48;;;11.23;;
79076;SDS011;68477;42.698;23.342;2023-03-13T05:50:03;21.40;;;11.43;;
79076;SDS011;68477;42.698;23.342;2023-03-13T05:52:30;25.13;;;11.70;;
79076;SDS011;68477;42.698;23.342;2023-03-13T05:54:56;18.88;;;11.68;;
79076;SDS011;68477;42.698;23.342;2023-03-13T05:57:22;21.77;;;11.15;;
79076;SDS011;68477;42.698;23.342;2023-03-13T05:59:47;16.60;;;10.77;;
79076;SDS011;68477;42.698;23.342;2023-03-13T06:02:12;21.25;;;11.70;;
79076;SDS011;68477;42.698;23.342;2023-03-13T06:04:38;38.17;;;16.25;;
79076;SDS011;68477;42.698;23.342;2023-03-13T06:07:03;19.52;;;10.88;;
79076;SDS011;68477;42.698;23.342;2023-03-13T06:09:29;28.95;;;14.40;;
79076;SDS011;68477;42.698;23.342;2023-03-13T06:11:54;22.38;;;11.43;;
79076;SDS011;68477;42.698;23.342;2023-03-13T06:14:20;24.02;;;12.32;;
79076;SDS011;68477;42.698;23.342;2023-03-13T06:16:45;20.70;;;10.07;;
79076;SDS011;68477;42.698;23.342;2023-03-13T06:19:11;17.52;;;9.05;;
79076;SDS011;68477;42.698;23.342;2023-03-13T06:21:36;15.50;;;7.72;;
79076;SDS011;68477;42.698;23.342;2023-03-13T06:24:02;15.50;;;7.80;;
79076;SDS011;68477;42.698;23.342;2023-03-13T06:26:28;25.58;;;12.50;;
79076;SDS011;68477;42.698;23.342;2023-03-13T06:28:54;20.75;;;8.82;;
79076;SDS011;68477;42.698;23.342;2023-03-13T06:31:19;16.50;;;9.48;;
79076;SDS011;68477;42.698;23.342;2023-03-13T06:33:45;13.18;;;7.38;;
79076;SDS011;68477;42.698;23.342;2023-03-13T06:36:10;17.58;;;8.02;;
79076;SDS011;68477;42.698;23.342;2023-03-13T06:38:36;17.60;;;8.45;;
79076;SDS011;68477;42.698;23.342;2023-03-13T06:41:02;17.23;;;9.93;;
79076;SDS011;68477;42.698;23.342;2023-03-13T06:43:27;14.85;;;6.85;;
79076;SDS011;68477;42.698;23.342;2023-03-13T06:45:53;11.90;;;7.28;;
79076;SDS011;68477;42.698;23.342;2023-03-13T06:48:19;15.48;;;7.18;;
79076;SDS011;68477;42.698;23.342;2023-03-13T06:50:47;16.38;;;7.80;;
79076;SDS011;68477;42.698;23.342;2023-03-13T06:53:16;15.25;;;7.95;;
79076;SDS011;68477;42.698;23.342;2023-03-13T06:55:43;17.27;;;9.05;;
79076;SDS011;68477;42.698;23.342;2023-03-13T06:58:09;11.75;;;7.32;;
79076;SDS011;68477;42.698;23.342;2023-03-13T07:00:35;15.07;;;8.75;;
79076;SDS011;68477;42.698;23.342;2023-03-13T07:03:01;16.02;;;9.18;;
79076;SDS011;68477;42.698;23.342;2023-03-13T07:05:26;18.08;;;9.40;;
79076;SDS011;68477;42.698;23.342;2023-03-13T07:07:51;15.65;;;8.85;;
79076;SDS011;68477;42.698;23.342;2023-03-13T07:10:17;22.70;;;9.95;;
79076;SDS011;68477;42.698;23.342;2023-03-13T07:12:42;19.55;;;10.20;;
79076;SDS011;68477;42.698;23.342;2023-03-13T07:15:08;20.63;;;10.52;;
79076;SDS011;68477;42.698;23.342;2023-03-13T07:17:34;19.50;;;9.90;;
79076;SDS011;68477;42.698;23.342;2023-03-13T07:19:59;28.42;;;10.02;;
79076;SDS011;68477;42.698;23.342;2023-03-13T07:22:28;14.13;;;8.65;;
79076;SDS011;68477;42.698;23.342;2023-03-13T07:24:53;19.45;;;9.68;;
79076;SDS011;68477;42.698;23.342;2023-03-13T07:27:19;16.10;;;8.98;;
79076;SDS011;68477;42.698;23.342;2023-03-13T07:29:45;16.58;;;9.10;;
79076;SDS011;68477;42.698;23.342;2023-03-13T07:32:10;17.48;;;9.30;;
79076;SDS011;68477;42.698;23.342;2023-03-13T07:34:36;18.65;;;10.00;;
79076;SDS011;68477;42.698;23.342;2023-03-13T07:37:02;14.13;;;8.70;;
79076;SDS011;68477;42.698;23.342;2023-03-13T07:39:29;14.75;;;9.60;;
79076;SDS011;68477;42.698;23.342;2023-03-13T07:41:55;16.23;;;9.50;;
79076;SDS011;68477;42.698;23.342;2023-03-13T07:44:20;14.75;;;8.07;;
79076;SDS011;68477;42.698;23.342;2023-03-13T07:46:45;15.60;;;9.10;;
79076;SDS011;68477;42.698;23.342;2023-03-13T07:49:12;17.38;;;9.82;;
79076;SDS011;68477;42.698;23.342;2023-03-13T07:51:38;18.88;;;9.25;;
79076;SDS011;68477;42.698;23.342;2023-03-13T07:54:03;16.13;;;8.75;;
79076;SDS011;68477;42.698;23.342;2023-03-13T07:56:29;12.70;;;7.10;;
79076;SDS011;68477;42.698;23.342;2023-03-13T07:58:54;7.93;;;5.38;;
79076;SDS011;68477;42.698;23.342;2023-03-13T08:01:24;17.75;;;9.07;;
79076;SDS011;68477;42.698;23.342;2023-03-13T08:03:51;14.43;;;8.50;;
79076;SDS011;68477;42.698;23.342;2023-03-13T08:06:20;13.63;;;9.65;;
79076;SDS011;68477;42.698;23.342;2023-03-13T08:08:50;14.40;;;9.15;;
79076;SDS011;68477;42.698;23.342;2023-03-13T08:11:20;12.10;;;7.78;;
79076;SDS011;68477;42.698;23.342;2023-03-13T08:13:48;17.08;;;9.30;;
79076;SDS011;68477;42.698;23.342;2023-03-13T08:16:15;18.35;;;9.60;;
79076;SDS011;68477;42.698;23.342;2023-03-13T08:18:44;18.20;;;10.38;;
79076;SDS011;68477;42.698;23.342;2023-03-13T08:21:15;17.60;;;10.05;;
79076;SDS011;68477;42.698;23.342;2023-03-13T08:23:44;13.50;;;9.32;;
79076;SDS011;68477;42.698;23.342;2023-03-13T08:26:10;13.45;;;9.57;;
79076;SDS011;68477;42.698;23.342;2023-03-13T08:28:38;16.90;;;9.55;;
79076;SDS011;68477;42.698;23.342;2023-03-13T08:31:08;15.38;;;9.38;;
79076;SDS011;68477;42.698;23.342;2023-03-13T08:33:37;16.50;;;9.35;;
79076;SDS011;68477;42.698;23.342;2023-03-13T08:38:39;16.00;;;9.15;;
79076;SDS011;68477;42.698;23.342;2023-03-13T08:41:09;15.90;;;9.75;;
79076;SDS011;68477;42.698;23.342;2023-03-13T08:43:35;16.27;;;8.85;;
79076;SDS011;68477;42.698;23.342;2023-03-13T08:46:00;19.38;;;9.48;;
79076;SDS011;68477;42.698;23.342;2023-03-13T08:48:26;18.13;;;9.65;;
79076;SDS011;68477;42.698;23.342;2023-03-13T08:50:59;18.90;;;10.23;;
79076;SDS011;68477;42.698;23.342;2023-03-13T08:53:33;19.63;;;9.82;;
79076;SDS011;68477;42.698;23.342;2023-03-13T08:56:00;12.60;;;9.15;;
79076;SDS011;68477;42.698;23.342;2023-03-13T08:58:26;17.30;;;9.85;;
79076;SDS011;68477;42.698;23.342;2023-03-13T09:00:52;16.73;;;9.15;;
79076;SDS011;68477;42.698;23.342;2023-03-13T09:03:19;18.80;;;9.30;;
79076;SDS011;68477;42.698;23.342;2023-03-13T09:05:44;18.83;;;9.38;;
79076;SDS011;68477;42.698;23.342;2023-03-13T09:08:12;14.02;;;9.10;;
79076;SDS011;68477;42.698;23.342;2023-03-13T09:10:39;16.48;;;9.35;;
79076;SDS011;68477;42.698;23.342;2023-03-13T09:13:04;17.85;;;9.13;;
79076;SDS011;68477;42.698;23.342;2023-03-13T09:15:30;11.77;;;7.45;;
79076;SDS011;68477;42.698;23.342;2023-03-13T09:17:55;19.90;;;9.25;;
79076;SDS011;68477;42.698;23.342;2023-03-13T09:20:21;14.35;;;9.35;;
79076;SDS011;68477;42.698;23.342;2023-03-13T09:22:46;17.58;;;9.13;;
79076;SDS011;68477;42.698;23.342;2023-03-13T09:25:12;13.52;;;7.63;;
79076;SDS011;68477;42.698;23.342;2023-03-13T09:27:38;15.18;;;8.90;;
79076;SDS011;68477;42.698;23.342;2023-03-13T09:30:04;9.30;;;6.55;;
79076;SDS011;68477;42.698;23.342;2023-03-13T09:32:30;21.52;;;10.27;;
79076;SDS011;68477;42.698;23.342;2023-03-13T09:34:55;15.85;;;10.27;;
79076;SDS011;68477;42.698;23.342;2023-03-13T09:37:21;16.13;;;10.07;;
79076;SDS011;68477;42.698;23.342;2023-03-13T09:39:47;15.43;;;8.88;;
79076;SDS011;68477;42.698;23.342;2023-03-13T09:44:45;13.07;;;8.88;;
79076;SDS011;68477;42.698;23.342;2023-03-13T09:47:23;12.27;;;8.68;;
79076;SDS011;68477;42.698;23.342;2023-03-13T09:49:58;17.33;;;10.52;;
79076;SDS011;68477;42.698;23.342;2023-03-13T09:52:32;16.48;;;9.80;;
79076;SDS011;68477;42.698;23.342;2023-03-13T09:55:02;17.70;;;10.70;;
79076;SDS011;68477;42.698;23.342;2023-03-13T10:00:18;16.20;;;8.80;;
79076;SDS011;68477;42.698;23.342;2023-03-13T10:03:05;14.88;;;8.90;;
79076;SDS011;68477;42.698;23.342;2023-03-13T10:06:03;16.33;;;8.90;;
79076;SDS011;68477;42.698;23.342;2023-03-13T10:08:31;13.75;;;8.35;;
79076;SDS011;68477;42.698;23.342;2023-03-13T10:11:05;11.60;;;9.07;;
79076;SDS011;68477;42.698;23.342;2023-03-13T10:13:40;16.67;;;10.00;;
79076;SDS011;68477;42.698;23.342;2023-03-13T10:19:08;11.90;;;7.47;;
79076;SDS011;68477;42.698;23.342;2023-03-13T10:26:37;15.25;;;9.90;;
79076;SDS011;68477;42.698;23.342;2023-03-13T10:29:36;15.27;;;9.13;;
79076;SDS011;68477;42.698;23.342;2023-03-13T10:32:00;18.40;;;9.27;;
79076;SDS011;68477;42.698;23.342;2023-03-13T10:37:32;13.77;;;9.15;;
79076;SDS011;68477;42.698;23.342;2023-03-13T10:40:20;17.42;;;10.48;;
79076;SDS011;68477;42.698;23.342;2023-03-13T10:42:47;14.75;;;9.05;;
79076;SDS011;68477;42.698;23.342;2023-03-13T10:45:14;16.15;;;8.95;;
79076;SDS011;68477;42.698;23.342;2023-03-13T10:50:11;14.73;;;9.15;;
79076;SDS011;68477;42.698;23.342;2023-03-13T10:52:45;14.52;;;8.45;;
79076;SDS011;68477;42.698;23.342;2023-03-13T10:55:13;10.98;;;7.57;;
79076;SDS011;68477;42.698;23.342;2023-03-13T10:58:04;15.20;;;9.52;;
79076;SDS011;68477;42.698;23.342;2023-03-13T11:00:32;18.80;;;8.63;;
79076;SDS011;68477;42.698;23.342;2023-03-13T11:03:00;14.57;;;9.65;;
79076;SDS011;68477;42.698;23.342;2023-03-13T11:05:41;15.80;;;9.70;;
79076;SDS011;68477;42.698;23.342;2023-03-13T11:08:12;15.20;;;8.88;;
79076;SDS011;68477;42.698;23.342;2023-03-13T11:11:00;15.30;;;9.07;;
79076;SDS011;68477;42.698;23.342;2023-03-13T11:13:40;20.90;;;9.40;;
79076;SDS011;68477;42.698;23.342;2023-03-13T11:21:56;16.35;;;8.98;;
79076;SDS011;68477;42.698;23.342;2023-03-13T11:24:40;12.18;;;7.68;;
79076;SDS011;68477;42.698;23.342;2023-03-13T11:27:18;17.33;;;10.05;;
79076;SDS011;68477;42.698;23.342;2023-03-13T11:30:04;14.88;;;8.48;;
79076;SDS011;68477;42.698;23.342;2023-03-13T11:38:32;15.77;;;8.77;;
79076;SDS011;68477;42.698;23.342;2023-03-13T11:44:08;15.73;;;9.30;;
79076;SDS011;68477;42.698;23.342;2023-03-13T11:46:56;13.18;;;9.13;;
79076;SDS011;68477;42.698;23.342;2023-03-13T12:05:14;17.17;;;10.23;;
79076;SDS011;68477;42.698;23.342;2023-03-13T12:10:19;14.77;;;9.27;;
79076;SDS011;68477;42.698;23.342;2023-03-13T12:12:54;14.43;;;8.20;;
79076;SDS011;68477;42.698;23.342;2023-03-13T12:18:17;12.85;;;9.50;;
79076;SDS011;68477;42.698;23.342;2023-03-13T12:20:55;13.98;;;8.95;;
79076;SDS011;68477;42.698;23.342;2023-03-13T12:31:33;16.77;;;9.90;;
79076;SDS011;68477;42.698;23.342;2023-03-13T12:42:50;13.80;;;9.90;;
79076;SDS011;68477;42.698;23.342;2023-03-13T12:45:29;13.85;;;9.45;;
79076;SDS011;68477;42.698;23.342;2023-03-13T12:53:42;14.00;;;10.10;;
79076;SDS011;68477;42.698;23.342;2023-03-13T12:58:40;20.13;;;10.68;;
79076;SDS011;68477;42.698;23.342;2023-03-13T13:01:12;13.10;;;8.63;;
79076;SDS011;68477;42.698;23.342;2023-03-13T13:06:23;14.30;;;9.77;;
79076;SDS011;68477;42.698;23.342;2023-03-13T13:14:02;15.25;;;10.00;;
79076;SDS011;68477;42.698;23.342;2023-03-13T13:16:50;16.48;;;9.45;;
79076;SDS011;68477;42.698;23.342;2023-03-13T13:24:54;14.32;;;9.15;;
79076;SDS011;68477;42.698;23.342;2023-03-13T13:27:27;18.48;;;9.68;;
79076;SDS011;68477;42.698;23.342;2023-03-13T13:30:43;12.55;;;9.35;;
79076;SDS011;68477;42.698;23.342;2023-03-13T13:32:54;14.93;;;10.30;;
79076;SDS011;68477;42.698;23.342;2023-03-13T13:35:40;16.02;;;8.75;;
79076;SDS011;68477;42.698;23.342;2023-03-13T13:41:01;16.13;;;8.95;;
79076;SDS011;68477;42.698;23.342;2023-03-13T13:43:47;15.70;;;8.85;;
79076;SDS011;68477;42.698;23.342;2023-03-13T13:51:38;14.45;;;9.90;;
79076;SDS011;68477;42.698;23.342;2023-03-13T13:56:45;18.60;;;10.30;;
79076;SDS011;68477;42.698;23.342;2023-03-13T13:59:30;15.45;;;10.35;;
79076;SDS011;68477;42.698;23.342;2023-03-13T14:07:02;19.17;;;9.93;;
79076;SDS011;68477;42.698;23.342;2023-03-13T14:17:41;13.50;;;8.75;;
79076;SDS011;68477;42.698;23.342;2023-03-13T14:20:27;14.10;;;8.77;;
79076;SDS011;68477;42.698;23.342;2023-03-13T14:22:54;17.73;;;8.82;;
79076;SDS011;68477;42.698;23.342;2023-03-13T14:25:23;14.02;;;9.02;;
79076;SDS011;68477;42.698;23.342;2023-03-13T14:27:49;12.27;;;8.27;;
79076;SDS011;68477;42.698;23.342;2023-03-13T14:30:17;21.23;;;9.60;;
79076;SDS011;68477;42.698;23.342;2023-03-13T14:32:43;15.45;;;8.05;;
79076;SDS011;68477;42.698;23.342;2023-03-13T14:35:10;15.32;;;8.65;;
79076;SDS011;68477;42.698;23.342;2023-03-13T14:37:43;14.30;;;9.35;;
79076;SDS011;68477;42.698;23.342;2023-03-13T14:40:26;14.00;;;8.20;;
79076;SDS011;68477;42.698;23.342;2023-03-13T14:42:57;17.25;;;8.43;;
79076;SDS011;68477;42.698;23.342;2023-03-13T14:47:49;16.13;;;9.10;;
79076;SDS011;68477;42.698;23.342;2023-03-13T14:50:16;16.98;;;8.90;;
79076;SDS011;68477;42.698;23.342;2023-03-13T14:52:52;12.52;;;9.05;;
79076;SDS011;68477;42.698;23.342;2023-03-13T14:55:33;16.50;;;9.05;;
79076;SDS011;68477;42.698;23.342;2023-03-13T14:58:03;12.90;;;8.13;;
79076;SDS011;68477;42.698;23.342;2023-03-13T15:08:20;12.53;;;8.40;;
79076;SDS011;68477;42.698;23.342;2023-03-13T15:10:47;14.75;;;9.05;;
79076;SDS011;68477;42.698;23.342;2023-03-13T15:13:24;15.60;;;8.85;;
79076;SDS011;68477;42.698;23.342;2023-03-13T15:16:01;13.02;;;8.63;;
79076;SDS011;68477;42.698;23.342;2023-03-13T15:18:29;16.90;;;9.13;;
79076;SDS011;68477;42.698;23.342;2023-03-13T15:21:16;15.07;;;9.02;;
79076;SDS011;68477;42.698;23.342;2023-03-13T15:23:49;12.73;;;8.35;;
79076;SDS011;68477;42.698;23.342;2023-03-13T15:26:17;20.58;;;9.95;;
79076;SDS011;68477;42.698;23.342;2023-03-13T15:28:45;16.95;;;9.63;;
79076;SDS011;68477;42.698;23.342;2023-03-13T15:31:11;13.55;;;8.45;;
79076;SDS011;68477;42.698;23.342;2023-03-13T15:33:38;14.93;;;8.50;;
79076;SDS011;68477;42.698;23.342;2023-03-13T15:36:04;14.07;;;8.82;;
79076;SDS011;68477;42.698;23.342;2023-03-13T15:38:30;14.30;;;8.77;;
79076;SDS011;68477;42.698;23.342;2023-03-13T15:40:55;14.20;;;8.25;;
79076;SDS011;68477;42.698;23.342;2023-03-13T15:43:21;15.10;;;8.32;;
79076;SDS011;68477;42.698;23.342;2023-03-13T15:45:48;15.13;;;9.18;;
79076;SDS011;68477;42.698;23.342;2023-03-13T15:48:17;19.25;;;9.85;;
79076;SDS011;68477;42.698;23.342;2023-03-13T15:50:54;17.80;;;9.48;;
79076;SDS011;68477;42.698;23.342;2023-03-13T15:53:26;16.05;;;9.00;;
79076;SDS011;68477;42.698;23.342;2023-03-13T15:55:54;21.55;;;9.48;;
79076;SDS011;68477;42.698;23.342;2023-03-13T15:58:21;17.73;;;9.00;;
79076;SDS011;68477;42.698;23.342;2023-03-13T16:00:48;16.63;;;9.45;;
79076;SDS011;68477;42.698;23.342;2023-03-13T16:03:15;14.55;;;9.07;;
79076;SDS011;68477;42.698;23.342;2023-03-13T16:05:58;16.33;;;9.25;;
79076;SDS011;68477;42.698;23.342;2023-03-13T16:08:25;17.38;;;9.02;;
79076;SDS011;68477;42.698;23.342;2023-03-13T16:13:18;19.38;;;9.88;;
79076;SDS011;68477;42.698;23.342;2023-03-13T16:15:44;23.35;;;9.63;;
79076;SDS011;68477;42.698;23.342;2023-03-13T16:18:28;17.83;;;8.75;;
79076;SDS011;68477;42.698;23.342;2023-03-13T16:20:54;25.55;;;9.63;;
79076;SDS011;68477;42.698;23.342;2023-03-13T16:23:20;17.85;;;9.40;;
79076;SDS011;68477;42.698;23.342;2023-03-13T16:25:46;16.13;;;8.70;;
79076;SDS011;68477;42.698;23.342;2023-03-13T16:28:12;14.73;;;8.88;;
79076;SDS011;68477;42.698;23.342;2023-03-13T16:30:39;15.65;;;9.73;;
79076;SDS011;68477;42.698;23.342;2023-03-13T16:33:07;12.80;;;8.45;;
79076;SDS011;68477;42.698;23.342;2023-03-13T16:35:33;15.02;;;8.77;;
79076;SDS011;68477;42.698;23.342;2023-03-13T16:38:00;13.85;;;8.93;;
79076;SDS011;68477;42.698;23.342;2023-03-13T16:40:30;21.92;;;10.23;;
79076;SDS011;68477;42.698;23.342;2023-03-13T16:42:57;16.38;;;9.35;;
79076;SDS011;68477;42.698;23.342;2023-03-13T16:45:23;14.80;;;9.02;;
79076;SDS011;68477;42.698;23.342;2023-03-13T16:47:49;18.83;;;9.43;;
79076;SDS011;68477;42.698;23.342;2023-03-13T16:50:30;14.40;;;8.50;;